createdAt,value
2022-08-02T00:01:34.350Z,71.18
2022-08-02T00:04:07.065Z,70.91
2022-08-02T00:06:37.163Z,70.97
2022-08-02T00:09:07.261Z,71.72
2022-08-02T00:11:36.276Z,71.53
2022-08-02T00:14:03.464Z,71.64
2022-08-02T00:16:38.117Z,71.47
2022-08-02T00:19:25.157Z,71.43
2022-08-02T00:21:54.768Z,71.40
2022-08-02T00:24:29.274Z,70.92
2022-08-02T00:27:20.217Z,70.92
2022-08-02T00:29:52.769Z,71.73
2022-08-02T00:32:20.496Z,71.47
2022-08-02T00:34:47.121Z,71.73
2022-08-02T00:37:16.867Z,71.75
2022-08-02T00:39:51.615Z,71.71
2022-08-02T00:42:18.264Z,71.68
2022-08-02T00:44:44.839Z,71.70
2022-08-02T00:47:11.552Z,72.06
2022-08-02T00:49:45.778Z,71.72
2022-08-02T00:52:13.659Z,71.72
2022-08-02T00:54:40.593Z,71.58
2022-08-02T00:57:16.425Z,71.32
2022-08-02T00:59:43.038Z,71.53
2022-08-02T01:02:10.081Z,71.37
2022-08-02T01:04:42.466Z,71.84
2022-08-02T01:07:13.262Z,72.19
2022-08-02T01:09:46.488Z,71.98
2022-08-02T01:12:14.363Z,72.07
2022-08-02T01:14:44.597Z,72.17
2022-08-02T01:17:34.693Z,72.35
2022-08-02T01:20:36.181Z,72.00
2022-08-02T01:23:22.531Z,72.63
2022-08-02T01:26:29.629Z,72.96
2022-08-02T01:40:04.697Z,72.34
2022-08-02T01:42:52.603Z,72.93
2022-08-02T01:45:22.536Z,72.41
2022-08-02T01:47:50.559Z,72.70
2022-08-02T01:50:21.793Z,72.75
2022-08-02T01:52:53.513Z,73.04
2022-08-02T01:55:33.480Z,73.04
2022-08-02T01:58:32.626Z,72.70
2022-08-02T02:01:00.865Z,72.82
2022-08-02T02:03:33.723Z,73.05
2022-08-02T02:09:00.352Z,73.39
2022-08-02T02:12:12.171Z,73.60
2022-08-02T02:14:15.157Z,73.84
2022-08-02T02:16:49.709Z,74.07
2022-08-02T02:22:12.051Z,73.72
2022-08-02T02:24:47.501Z,73.80
2022-08-02T02:27:17.765Z,73.52
2022-08-02T02:29:50.780Z,73.95
2022-08-02T02:32:22.687Z,73.99
2022-08-02T02:34:54.130Z,73.75
2022-08-02T02:37:23.437Z,73.72
2022-08-02T02:39:52.338Z,74.04
2022-08-02T02:42:27.496Z,73.69
2022-08-02T02:44:55.354Z,73.82
2022-08-02T02:47:23.305Z,73.97
2022-08-02T02:50:18.518Z,74.24
2022-08-02T02:52:46.560Z,74.40
2022-08-02T02:55:14.060Z,74.12
2022-08-02T02:57:44.013Z,74.51
2022-08-02T03:00:40.001Z,74.37
2022-08-02T03:06:59.574Z,74.40
2022-08-02T03:09:38.927Z,74.13
2022-08-02T03:21:57.191Z,73.80
2022-08-02T03:25:09.083Z,74.00
2022-08-02T03:27:33.807Z,74.40
2022-08-02T03:30:11.895Z,74.80
2022-08-02T03:32:40.847Z,74.55
2022-08-02T03:35:11.281Z,74.79
2022-08-02T03:37:41.707Z,74.82
2022-08-02T03:43:05.143Z,74.72
2022-08-02T03:45:33.018Z,74.83
2022-08-02T03:48:01.794Z,75.18
2022-08-02T03:50:56.331Z,75.41
2022-08-02T03:53:26.030Z,74.98
2022-08-02T03:55:55.840Z,74.60
2022-08-02T03:58:34.332Z,75.31
2022-08-02T04:01:06.100Z,75.09
2022-08-02T04:06:40.243Z,75.32
2022-08-02T04:09:09.755Z,75.33
2022-08-02T04:11:37.925Z,75.27
2022-08-02T04:14:11.198Z,75.18
2022-08-02T04:16:59.518Z,75.66
2022-08-02T04:19:55.160Z,75.21
2022-08-02T04:22:57.896Z,75.09
2022-08-02T04:29:21.888Z,75.21
2022-08-02T04:41:44.269Z,75.00
2022-08-02T05:28:27.680Z,75.07
2022-08-02T05:34:09.915Z,73.95
2022-08-02T05:40:55.010Z,67.93
2022-08-02T05:43:54.215Z,62.33
2022-08-02T05:46:54.580Z,60.42
2022-08-02T05:49:21.412Z,60.50
2022-08-02T05:52:29.083Z,59.42
2022-08-02T05:55:34.634Z,57.86
2022-08-02T06:01:43.012Z,56.78
2022-08-02T06:04:34.462Z,55.45
2022-08-02T06:08:12.727Z,56.01
2022-08-02T06:15:04.657Z,52.13
2022-08-02T06:18:01.641Z,48.21
2022-08-02T06:24:15.283Z,43.06
2022-08-02T06:26:46.886Z,44.04
2022-08-02T06:29:17.215Z,45.21
2022-08-02T06:31:45.253Z,43.79
2022-08-02T06:34:11.845Z,42.65
2022-08-02T06:36:46.460Z,41.19
2022-08-02T06:39:20.839Z,39.06
2022-08-02T06:41:51.739Z,37.26
2022-08-02T06:47:10.914Z,34.75
2022-08-02T06:49:51.941Z,34.39
2022-08-02T06:52:30.291Z,33.41
2022-08-02T06:55:02.026Z,33.40
2022-08-02T06:57:29.101Z,32.82
2022-08-02T06:59:55.992Z,33.70
2022-08-02T07:02:23.286Z,34.18
2022-08-02T07:04:50.183Z,36.67
2022-08-02T07:07:16.876Z,38.25
2022-08-02T07:10:00.501Z,40.38
2022-08-02T07:12:32.984Z,43.10
2022-08-02T07:15:04.993Z,45.95
2022-08-02T07:17:32.184Z,46.95
2022-08-02T07:19:59.308Z,48.00
2022-08-02T07:22:27.556Z,49.04
2022-08-02T07:24:56.173Z,50.06
2022-08-02T07:27:23.260Z,51.12
2022-08-02T07:29:49.854Z,51.20
2022-08-02T07:32:17.761Z,50.01
2022-08-02T07:34:50.455Z,46.97
2022-08-02T07:37:55.078Z,45.82
2022-08-02T07:40:33.769Z,45.84
2022-08-02T07:43:03.942Z,45.03
2022-08-02T07:45:55.726Z,43.61
2022-08-02T07:48:44.056Z,40.88
2022-08-02T07:51:17.532Z,40.19
2022-08-02T07:54:18.347Z,40.48
2022-08-02T07:57:26.513Z,40.50
2022-08-02T08:09:45.394Z,40.65
2022-08-02T08:15:23.424Z,39.94
2022-08-02T08:21:07.607Z,38.08
2022-08-02T08:26:21.045Z,38.42
2022-08-02T08:28:53.584Z,42.41
2022-08-02T08:31:20.035Z,41.88
2022-08-02T08:33:46.578Z,40.01
2022-08-02T08:36:13.566Z,39.44
2022-08-02T08:38:46.170Z,40.25
2022-08-02T08:41:16.883Z,41.18
2022-08-02T08:43:44.054Z,39.61
2022-08-02T08:46:31.238Z,41.26
2022-08-02T08:49:12.284Z,42.19
2022-08-02T08:51:44.633Z,41.73
2022-08-02T08:54:17.007Z,42.41
2022-08-02T08:56:49.995Z,41.57
2022-08-02T08:59:16.735Z,41.27
2022-08-02T09:01:49.777Z,42.10
2022-08-02T09:04:23.333Z,42.96
2022-08-02T09:06:50.773Z,42.55
2022-08-02T09:09:46.613Z,40.98
2022-08-02T09:12:17.937Z,40.31
2022-08-02T09:14:46.462Z,40.87
2022-08-02T09:17:17.311Z,40.68
2022-08-02T09:19:46.213Z,40.94
2022-08-02T09:22:14.620Z,39.26
2022-08-02T09:24:54.781Z,40.08
2022-08-02T09:27:39.476Z,41.58
2022-08-02T09:30:14.183Z,41.97
2022-08-02T09:32:50.072Z,41.64
2022-08-02T09:36:05.908Z,42.03
2022-08-02T09:38:21.142Z,39.69
2022-08-02T09:40:47.592Z,39.70
2022-08-02T09:43:14.387Z,39.95
2022-08-02T09:45:41.017Z,41.09
2022-08-02T09:48:09.121Z,40.20
2022-08-02T09:50:42.033Z,41.22
2022-08-02T09:53:13.896Z,41.80
2022-08-02T09:55:41.718Z,40.44
2022-08-02T09:58:19.437Z,41.45
2022-08-02T10:00:54.889Z,41.54
2022-08-02T10:03:22.804Z,42.08
2022-08-02T10:05:56.112Z,42.05
2022-08-02T10:08:29.691Z,42.60
2022-08-02T10:11:01.915Z,41.73
2022-08-02T10:13:33.141Z,41.02
2022-08-02T10:15:59.673Z,42.92
2022-08-02T10:18:38.637Z,42.28
2022-08-02T10:21:14.983Z,43.01
2022-08-02T10:23:45.293Z,43.59
2022-08-02T10:26:18.010Z,43.91
2022-08-02T10:28:47.599Z,43.91
2022-08-02T10:31:19.029Z,44.36
2022-08-02T10:33:50.348Z,43.53
2022-08-02T10:36:18.167Z,42.88
2022-08-02T10:38:46.823Z,42.30
2022-08-02T10:41:13.477Z,41.74
2022-08-02T10:43:43.298Z,39.80
2022-08-02T10:46:37.446Z,39.81
2022-08-02T10:49:38.492Z,40.73
2022-08-02T10:52:02.553Z,40.57
2022-08-02T10:54:33.405Z,40.21
2022-08-02T10:57:17.773Z,40.82
2022-08-02T10:59:48.189Z,40.70
2022-08-02T11:02:33.973Z,39.64
2022-08-02T11:05:02.726Z,39.88
2022-08-02T11:07:33.481Z,40.56
2022-08-02T11:10:19.921Z,40.28
2022-08-02T11:13:17.467Z,39.82
2022-08-02T11:15:50.903Z,39.38
2022-08-02T11:18:18.241Z,38.67
2022-08-02T11:20:44.919Z,38.43
2022-08-02T11:23:45.298Z,38.76
2022-08-02T11:26:30.650Z,37.10
2022-08-02T11:28:58.773Z,36.74
2022-08-02T11:31:25.695Z,36.24
2022-08-02T11:33:52.550Z,37.58
2022-08-02T11:36:38.407Z,37.85
2022-08-02T11:39:13.193Z,37.02
2022-08-02T11:41:46.944Z,36.04
2022-08-02T11:44:14.304Z,36.05
2022-08-02T11:46:41.168Z,35.29
2022-08-02T11:49:18.686Z,35.43
2022-08-02T11:51:59.585Z,36.03
2022-08-02T11:54:29.187Z,34.64
2022-08-02T11:56:55.828Z,34.80
2022-08-02T11:59:22.311Z,35.23
2022-08-02T12:01:49.117Z,34.92
2022-08-02T12:04:18.535Z,34.72
2022-08-02T12:06:54.649Z,35.43
2022-08-02T12:09:22.915Z,35.23
2022-08-02T12:11:50.899Z,34.39
2022-08-02T12:14:17.650Z,36.59
2022-08-02T12:17:02.891Z,36.96
2022-08-02T12:19:29.701Z,36.03
2022-08-02T12:22:24.437Z,36.01
2022-08-02T12:24:56.589Z,34.49
2022-08-02T12:27:34.802Z,36.67
2022-08-02T12:30:05.608Z,36.87
2022-08-02T12:32:32.514Z,35.56
2022-08-02T12:35:08.434Z,35.73
2022-08-02T12:37:36.087Z,36.93
2022-08-02T12:40:31.623Z,36.90
2022-08-02T12:43:03.687Z,36.31
2022-08-02T12:45:56.670Z,36.37
2022-08-02T12:48:38.608Z,36.73
2022-08-02T12:51:24.543Z,34.96
2022-08-02T12:53:59.660Z,35.86
2022-08-02T12:56:31.672Z,33.75
2022-08-02T12:58:58.533Z,33.71
2022-08-02T13:01:27.920Z,33.66
2022-08-02T13:04:10.125Z,33.29
2022-08-02T13:06:43.966Z,33.50
2022-08-02T13:09:16.352Z,34.64
2022-08-02T13:11:44.185Z,33.57
2022-08-02T13:14:12.225Z,34.07
2022-08-02T13:16:38.978Z,34.26
2022-08-02T13:19:05.750Z,34.81
2022-08-02T13:21:40.324Z,33.32
2022-08-02T13:24:23.279Z,33.52
2022-08-02T13:26:55.215Z,33.12
2022-08-02T13:29:21.721Z,33.49
2022-08-02T13:34:40.244Z,32.30
2022-08-02T13:37:06.737Z,32.49
2022-08-02T13:39:33.283Z,32.04
2022-08-02T13:41:59.872Z,31.58
2022-08-02T13:44:26.328Z,29.95
2022-08-02T13:46:53.001Z,29.98
2022-08-02T13:49:21.823Z,30.62
2022-08-02T13:51:48.665Z,30.54
2022-08-02T13:54:16.097Z,32.08
2022-08-02T13:56:42.574Z,33.00
2022-08-02T13:59:26.283Z,32.93
2022-08-02T14:01:56.873Z,32.79
2022-08-02T14:04:24.580Z,32.78
2022-08-02T14:06:51.550Z,33.55
2022-08-02T14:09:18.028Z,32.75
2022-08-02T14:11:46.104Z,31.96
2022-08-02T14:14:16.401Z,32.37
2022-08-02T14:16:44.313Z,32.89
2022-08-02T14:19:24.561Z,32.39
2022-08-02T14:21:51.640Z,34.11
2022-08-02T14:24:20.262Z,33.59
2022-08-02T14:26:48.192Z,33.10
2022-08-02T14:29:15.849Z,32.90
2022-08-02T14:31:44.848Z,34.17
2022-08-02T14:34:14.447Z,33.49
2022-08-02T14:36:41.172Z,33.31
2022-08-02T14:39:07.732Z,34.54
2022-08-02T14:41:58.934Z,35.13
2022-08-02T14:44:23.302Z,35.54
2022-08-02T14:46:51.611Z,35.82
2022-08-02T14:49:25.516Z,35.81
2022-08-02T14:51:56.896Z,36.50
2022-08-02T14:54:30.995Z,36.36
2022-08-02T14:57:01.697Z,35.31
2022-08-02T14:59:29.095Z,36.93
2022-08-02T15:02:04.675Z,37.23
2022-08-02T15:04:42.696Z,37.24
2022-08-02T15:07:10.095Z,37.08
2022-08-02T15:09:39.694Z,37.51
2022-08-02T15:12:09.771Z,37.17
2022-08-02T15:14:36.689Z,36.48
2022-08-02T15:17:04.050Z,36.72
2022-08-02T15:19:55.999Z,36.25
2022-08-02T15:22:19.055Z,37.38
2022-08-02T15:24:46.612Z,36.92
2022-08-02T15:27:14.571Z,36.83
2022-08-02T15:29:42.551Z,37.26
2022-08-02T15:32:09.607Z,37.13
2022-08-02T15:34:36.522Z,37.50
2022-08-02T15:37:03.032Z,37.84
2022-08-02T15:39:30.166Z,38.27
2022-08-02T15:41:57.304Z,37.51
2022-08-02T15:44:24.826Z,37.80
2022-08-02T15:46:51.792Z,38.01
2022-08-02T15:49:20.427Z,38.62
2022-08-02T15:51:47.033Z,39.61
2022-08-02T15:54:13.735Z,38.99
2022-08-02T15:56:40.484Z,39.49
2022-08-02T15:59:07.038Z,38.80
2022-08-02T16:01:38.396Z,38.16
2022-08-02T16:04:11.640Z,38.57
2022-08-02T16:06:38.091Z,39.16
2022-08-02T16:09:04.838Z,40.24
2022-08-02T16:11:31.353Z,40.46
2022-08-02T16:13:59.223Z,40.61
2022-08-02T16:16:28.820Z,41.05
2022-08-02T16:18:55.988Z,41.04
2022-08-02T16:21:24.505Z,41.65
2022-08-02T16:24:01.715Z,41.72
2022-08-02T16:26:30.974Z,41.49
2022-08-02T16:28:57.905Z,41.18
2022-08-02T16:31:24.520Z,41.46
2022-08-02T16:33:56.481Z,42.02
2022-08-02T16:36:24.444Z,41.62
2022-08-02T16:38:51.447Z,41.80
2022-08-02T16:41:18.921Z,41.70
2022-08-02T16:43:45.461Z,41.69
2022-08-02T16:46:11.962Z,41.92
2022-08-02T16:48:39.094Z,42.88
2022-08-02T16:51:13.780Z,43.32
2022-08-02T16:53:59.968Z,43.53
2022-08-02T16:56:28.408Z,43.17
2022-08-02T16:58:55.293Z,42.92
2022-08-02T17:01:27.544Z,43.16
2022-08-02T17:03:56.065Z,43.83
2022-08-02T17:06:26.149Z,41.99
2022-08-02T17:08:54.538Z,42.17
2022-08-02T17:11:24.633Z,42.25
2022-08-02T17:13:51.772Z,42.28
2022-08-02T17:16:25.391Z,42.42
2022-08-02T17:18:53.897Z,43.05
2022-08-02T17:21:20.581Z,42.69
2022-08-02T17:24:05.062Z,42.95
2022-08-02T17:26:36.382Z,43.32
2022-08-02T17:29:16.318Z,42.99
2022-08-02T17:32:05.633Z,43.23
2022-08-02T17:34:35.709Z,43.26
2022-08-02T17:37:05.715Z,44.00
2022-08-02T17:39:34.282Z,44.12
2022-08-02T17:42:09.981Z,44.50
2022-08-02T17:44:42.090Z,44.83
2022-08-02T17:47:12.013Z,44.15
2022-08-02T17:49:43.866Z,44.43
2022-08-02T17:52:50.345Z,44.90
2022-08-02T17:55:03.475Z,45.16
2022-08-02T17:57:55.813Z,45.89
2022-08-02T18:00:17.387Z,46.19
2022-08-02T18:02:43.992Z,46.35
2022-08-02T18:05:20.383Z,46.43
2022-08-02T18:07:55.342Z,46.95
2022-08-02T18:10:24.896Z,47.04
2022-08-02T18:12:53.634Z,47.42
2022-08-02T18:15:23.120Z,47.71
2022-08-02T18:17:49.620Z,47.70
2022-08-02T18:20:16.943Z,48.62
2022-08-02T18:22:44.960Z,48.96
2022-08-02T18:25:18.402Z,48.50
2022-08-02T18:27:58.621Z,48.64
2022-08-02T18:30:28.603Z,49.02
2022-08-02T18:33:54.329Z,49.17
2022-08-02T18:35:43.731Z,49.31
2022-08-02T18:38:11.862Z,49.42
2022-08-02T18:40:38.705Z,49.53
2022-08-02T18:43:07.135Z,50.21
2022-08-02T18:46:04.520Z,50.70
2022-08-02T18:48:22.746Z,51.11
2022-08-02T18:50:55.204Z,51.02
2022-08-02T18:53:39.536Z,51.81
2022-08-02T18:56:19.582Z,51.65
2022-08-02T18:58:51.000Z,51.87
2022-08-02T19:01:31.468Z,52.41
2022-08-02T19:03:59.950Z,52.63
2022-08-02T19:06:29.043Z,52.38
2022-08-02T19:09:05.334Z,52.99
2022-08-02T19:11:40.883Z,53.09
2022-08-02T19:14:08.052Z,53.47
2022-08-02T19:16:36.729Z,54.19
2022-08-02T19:19:04.844Z,54.19
2022-08-02T19:22:26.806Z,54.15
2022-08-02T19:24:17.820Z,54.29
2022-08-02T19:26:51.656Z,54.29
2022-08-02T19:29:42.320Z,54.59
2022-08-02T19:32:42.238Z,54.97
2022-08-02T19:34:53.373Z,55.05
2022-08-02T19:37:19.825Z,55.08
2022-08-02T19:39:46.407Z,55.81
2022-08-02T19:42:14.864Z,56.04
2022-08-02T19:44:48.893Z,55.79
2022-08-02T19:47:19.290Z,55.57
2022-08-02T19:49:48.784Z,56.28
2022-08-02T19:52:20.860Z,56.20
2022-08-02T19:54:55.721Z,56.23
2022-08-02T19:57:25.201Z,56.73
2022-08-02T19:59:52.305Z,57.02
2022-08-02T20:02:19.474Z,56.96
2022-08-02T20:04:50.379Z,57.09
2022-08-02T20:07:49.856Z,57.45
2022-08-02T20:10:10.889Z,58.06
2022-08-02T20:12:39.693Z,58.46
2022-08-02T20:15:14.769Z,58.60
2022-08-02T20:17:47.472Z,58.91
2022-08-02T20:20:15.950Z,59.91
2022-08-02T20:23:00.771Z,59.72
2022-08-02T20:25:37.600Z,60.12
2022-08-02T20:28:12.841Z,60.45
2022-08-02T20:30:40.179Z,60.44
2022-08-02T20:33:22.102Z,61.25
2022-08-02T20:35:55.968Z,60.60
2022-08-02T20:38:25.084Z,60.87
2022-08-02T20:40:56.455Z,61.35
2022-08-02T20:43:31.505Z,61.24
2022-08-02T20:46:02.424Z,61.47
2022-08-02T20:48:30.344Z,61.13
2022-08-02T20:50:57.788Z,61.42
2022-08-02T20:53:26.065Z,61.16
2022-08-02T20:55:56.950Z,61.26
2022-08-02T20:58:26.476Z,61.59
2022-08-02T21:00:58.785Z,62.04
2022-08-02T21:06:14.846Z,62.75
2022-08-02T21:08:42.132Z,63.29
2022-08-02T21:11:14.101Z,63.80
2022-08-02T21:13:47.119Z,63.68
2022-08-02T21:16:27.707Z,64.30
2022-08-02T21:19:00.281Z,64.60
2022-08-02T21:21:27.376Z,64.50
2022-08-02T21:23:54.988Z,64.21
2022-08-02T21:26:27.801Z,64.74
2022-08-02T21:28:55.633Z,64.51
2022-08-02T21:31:22.239Z,64.95
2022-08-02T21:33:58.195Z,64.79
2022-08-02T21:36:32.605Z,65.27
2022-08-02T21:39:08.036Z,65.40
2022-08-02T21:41:46.603Z,66.05
2022-08-02T21:44:19.404Z,66.58
2022-08-02T21:46:49.254Z,66.89
2022-08-02T21:49:16.951Z,67.40
2022-08-02T21:51:43.739Z,67.71
2022-08-02T21:54:19.999Z,67.88
2022-08-02T21:56:52.091Z,67.79
2022-08-02T21:59:26.356Z,67.31
2022-08-02T22:04:23.675Z,67.56
2022-08-02T22:06:50.156Z,68.22
2022-08-02T22:09:44.045Z,68.45
2022-08-02T22:12:06.466Z,68.57
2022-08-02T22:14:36.856Z,69.02
2022-08-02T22:17:08.665Z,69.01
2022-08-02T22:19:36.059Z,69.03
2022-08-02T22:22:02.472Z,69.09
2022-08-02T22:24:29.877Z,69.35
2022-08-02T22:26:57.155Z,69.30
2022-08-02T22:29:23.632Z,70.12
2022-08-02T22:31:50.302Z,70.23
2022-08-02T22:34:36.640Z,70.31
2022-08-02T22:37:05.753Z,70.09
2022-08-02T22:39:32.577Z,69.97
2022-08-02T22:42:06.302Z,70.44
2022-08-02T22:44:34.072Z,70.64
2022-08-02T22:47:06.897Z,70.18
2022-08-02T22:49:38.138Z,69.98
2022-08-02T22:52:12.275Z,70.67
2022-08-02T22:54:40.737Z,71.01
2022-08-02T22:57:11.480Z,70.65
2022-08-02T22:59:08.420Z,62.43
2022-08-02T22:59:39.678Z,70.51
2022-08-02T23:02:06.985Z,70.50
2022-08-02T23:04:33.684Z,70.38
2022-08-02T23:07:00.149Z,70.71
2022-08-02T23:09:26.611Z,70.89
2022-08-02T23:11:53.084Z,71.48
2022-08-02T23:14:19.905Z,71.50
2022-08-02T23:17:04.902Z,71.93
2022-08-02T23:19:50.104Z,71.50
2022-08-02T23:22:17.869Z,72.21
2022-08-02T23:24:45.529Z,72.78
2022-08-02T23:27:12.107Z,73.64
2022-08-02T23:29:38.922Z,73.49
2022-08-02T23:32:05.456Z,73.78
2022-08-02T23:34:33.276Z,73.63
2022-08-02T23:37:00.223Z,74.37
2022-08-02T23:39:26.936Z,74.71
2022-08-02T23:41:54.899Z,74.91
2022-08-02T23:44:22.611Z,74.83
2022-08-02T23:46:49.208Z,75.05
2022-08-02T23:49:16.701Z,75.25
2022-08-02T23:51:43.800Z,75.56
2022-08-02T23:54:11.281Z,75.64
2022-08-02T23:56:38.826Z,75.92
2022-08-02T23:59:06.561Z,76.05
